Time;durP1;ratioP1;P1;durP2;ratioP2;P2;SDS_P1;SDS_P2;PMS_P1;PMS_P2;Temp;Humidity;BMP_temperature;BMP_pressure;BME280_temperature;BME280_humidity;BME280_pressure;Samples;Min_cycle;Max_cycle;Signal;HPM_P1;HPM_P2
2023/07/26 00:00:18;;;;;;;5.25;1.60;;;;;;;;;;5007300;28;20560;-73
2023/07/26 00:02:43;;;;;;;5.45;1.58;;;;;;;;;;4997379;28;20030;-72
2023/07/26 00:05:08;;;;;;;5.13;1.73;;;;;;;;;;4997413;28;20041;-73
2023/07/26 00:07:34;;;;;;;5.85;1.65;;;;;;;;;;4998426;28;20493;-73
2023/07/26 00:09:59;;;;;;;7.90;1.80;;;;;;;;;;4996291;28;20076;-73
2023/07/26 00:12:27;;;;;;;7.30;1.70;;;;;;;;;;4996766;28;20049;-72
2023/07/26 00:14:53;;;;;;;5.82;1.58;;;;;;;;;;4995349;28;20572;-73
2023/07/26 00:17:18;;;;;;;7.65;2.25;;;;;;;;;;4993767;28;20033;-72
2023/07/26 00:19:43;;;;;;;7.20;2.15;;;;;;;;;;5008840;28;20103;-71
2023/07/26 00:22:09;;;;;;;7.28;1.75;;;;;;;;;;4993140;28;20081;-73
2023/07/26 00:24:34;;;;;;;4.32;1.73;;;;;;;;;;4996101;28;20041;-73
2023/07/26 00:27:00;;;;;;;6.72;1.90;;;;;;;;;;5027903;28;20196;-71
2023/07/26 00:29:25;;;;;;;5.55;1.98;;;;;;;;;;4999261;28;20416;-72
2023/07/26 00:31:53;;;;;;;8.07;2.22;;;;;;;;;;4996103;28;20200;-72
2023/07/26 00:34:19;;;;;;;5.18;1.60;;;;;;;;;;4991306;28;20025;-73
2023/07/26 00:36:44;;;;;;;3.15;1.73;;;;;;;;;;5009897;28;20265;-71
2023/07/26 00:39:10;;;;;;;6.53;1.70;;;;;;;;;;4998390;28;20033;-72
2023/07/26 00:41:35;;;;;;;5.22;2.10;;;;;;;;;;4999067;28;20109;-72
2023/07/26 00:44:00;;;;;;;8.52;2.10;;;;;;;;;;4997693;28;20401;-72
2023/07/26 00:46:26;;;;;;;5.35;1.45;;;;;;;;;;4995753;28;20045;-72
2023/07/26 00:48:52;;;;;;;5.75;1.55;;;;;;;;;;5012675;28;20025;-72
2023/07/26 00:51:17;;;;;;;5.53;1.45;;;;;;;;;;5029768;28;20026;-72
2023/07/26 00:53:43;;;;;;;5.35;1.83;;;;;;;;;;4997360;28;20081;-72
2023/07/26 00:56:09;;;;;;;6.53;1.80;;;;;;;;;;4998370;28;20037;-72
2023/07/26 00:58:35;;;;;;;6.10;1.50;;;;;;;;;;4995141;28;20033;-71
2023/07/26 01:01:00;;;;;;;8.80;1.90;;;;;;;;;;4998231;28;20457;-72
2023/07/26 01:03:25;;;;;;;7.38;1.75;;;;;;;;;;4996501;28;20144;-71
2023/07/26 01:05:59;;;;;;;3.03;1.88;;;;;;;;;;4995841;28;20045;-73
2023/07/26 01:08:34;;;;;;;6.13;1.88;;;;;;;;;;4994812;28;20033;-72
2023/07/26 01:11:04;;;;;;;3.85;1.98;;;;;;;;;;4995538;28;20137;-73
2023/07/26 01:13:29;;;;;;;7.00;1.80;;;;;;;;;;4997106;28;20049;-71
2023/07/26 01:15:56;;;;;;;8.77;1.50;;;;;;;;;;4996980;28;20037;-72
2023/07/26 01:18:21;;;;;;;5.03;1.40;;;;;;;;;;4995401;28;20041;-72
2023/07/26 01:20:46;;;;;;;2.42;1.25;;;;;;;;;;4995517;28;20178;-72
2023/07/26 01:23:12;;;;;;;8.65;1.67;;;;;;;;;;4995747;28;20284;-71
2023/07/26 01:25:37;;;;;;;6.82;1.48;;;;;;;;;;4996527;28;20045;-71
2023/07/26 01:28:03;;;;;;;5.95;1.75;;;;;;;;;;4994040;28;20660;-73
2023/07/26 01:30:29;;;;;;;6.05;1.17;;;;;;;;;;4994250;28;20526;-71
2023/07/26 01:32:56;;;;;;;5.65;1.52;;;;;;;;;;4993731;28;20223;-72
2023/07/26 01:35:21;;;;;;;4.70;1.70;;;;;;;;;;5043879;28;20513;-73
2023/07/26 01:37:47;;;;;;;9.35;1.85;;;;;;;;;;5011899;28;20060;-74
2023/07/26 01:40:16;;;;;;;6.20;1.77;;;;;;;;;;5013317;28;20040;-71
2023/07/26 01:42:41;;;;;;;6.43;1.58;;;;;;;;;;5013917;28;20280;-71
2023/07/26 01:45:07;;;;;;;5.70;1.40;;;;;;;;;;5012704;28;20299;-70
2023/07/26 01:47:32;;;;;;;6.13;1.40;;;;;;;;;;5012963;28;20515;-73
2023/07/26 01:49:58;;;;;;;6.68;1.33;;;;;;;;;;5013859;28;22143;-72
2023/07/26 01:52:23;;;;;;;5.90;1.40;;;;;;;;;;5011173;28;20045;-74
2023/07/26 01:54:48;;;;;;;4.53;1.60;;;;;;;;;;5014984;28;20033;-73
2023/07/26 01:57:17;;;;;;;6.40;1.45;;;;;;;;;;5015129;28;20419;-73
2023/07/26 01:59:44;;;;;;;5.05;1.55;;;;;;;;;;5010070;28;20037;-72
2023/07/26 02:02:10;;;;;;;6.20;1.38;;;;;;;;;;5014299;28;20056;-71
2023/07/26 02:04:35;;;;;;;4.63;1.52;;;;;;;;;;5044214;28;20052;-71
2023/07/26 02:07:01;;;;;;;7.22;1.80;;;;;;;;;;5016387;28;20558;-72
2023/07/26 02:09:26;;;;;;;4.70;1.65;;;;;;;;;;5011495;28;20045;-72
2023/07/26 02:11:52;;;;;;;6.88;1.50;;;;;;;;;;5007434;28;20052;-72
2023/07/26 02:14:17;;;;;;;5.63;1.77;;;;;;;;;;5016728;28;20037;-72
2023/07/26 02:16:42;;;;;;;3.72;1.52;;;;;;;;;;5013040;28;20060;-72
2023/07/26 02:19:07;;;;;;;4.43;1.40;;;;;;;;;;5047603;28;20033;-73
2023/07/26 02:21:33;;;;;;;8.68;1.50;;;;;;;;;;5014019;28;20029;-73
2023/07/26 02:23:58;;;;;;;6.00;2.00;;;;;;;;;;5013706;28;20219;-73
2023/07/26 02:26:24;;;;;;;5.65;1.40;;;;;;;;;;5016785;28;20029;-73
2023/07/26 02:28:49;;;;;;;7.90;1.58;;;;;;;;;;5015790;28;20044;-73
2023/07/26 02:31:14;;;;;;;5.07;1.80;;;;;;;;;;5015101;28;20033;-72
2023/07/26 02:33:39;;;;;;;5.25;1.80;;;;;;;;;;5016318;28;20387;-73
2023/07/26 02:36:05;;;;;;;6.18;1.65;;;;;;;;;;5010088;28;20182;-73
2023/07/26 02:38:31;;;;;;;5.90;1.63;;;;;;;;;;5030642;28;20060;-73
2023/07/26 02:40:56;;;;;;;6.45;1.52;;;;;;;;;;5016431;28;20504;-72
2023/07/26 02:43:22;;;;;;;5.20;1.77;;;;;;;;;;5010438;28;20108;-73
2023/07/26 02:45:47;;;;;;;4.45;1.73;;;;;;;;;;5020208;28;20325;-72
2023/07/26 02:48:12;;;;;;;3.33;1.35;;;;;;;;;;5015256;28;20061;-72
2023/07/26 02:50:38;;;;;;;2.58;1.50;;;;;;;;;;5021433;28;20045;-73
2023/07/26 02:53:06;;;;;;;3.95;1.52;;;;;;;;;;5016824;28;20425;-72
2023/07/26 02:55:31;;;;;;;7.53;1.58;;;;;;;;;;5020342;28;20449;-73
2023/07/26 02:57:56;;;;;;;8.73;1.80;;;;;;;;;;5034187;28;20037;-73
2023/07/26 03:00:22;;;;;;;7.57;1.80;;;;;;;;;;5017557;28;20065;-73
2023/07/26 03:02:47;;;;;;;8.73;1.83;;;;;;;;;;5014693;28;20059;-74
2023/07/26 03:05:12;;;;;;;6.32;1.70;;;;;;;;;;5020111;28;20041;-72
2023/07/26 03:07:38;;;;;;;5.47;1.67;;;;;;;;;;5008334;28;20072;-71
2023/07/26 03:10:03;;;;;;;5.35;1.75;;;;;;;;;;4991215;28;20038;-74
2023/07/26 03:12:29;;;;;;;7.22;1.85;;;;;;;;;;4998425;28;20052;-71
2023/07/26 03:14:54;;;;;;;6.80;1.77;;;;;;;;;;5017651;28;20193;-71
2023/07/26 03:17:19;;;;;;;7.20;1.75;;;;;;;;;;5016947;28;20034;-70
2023/07/26 03:19:47;;;;;;;5.18;1.77;;;;;;;;;;5018096;28;20056;-71
2023/07/26 03:22:12;;;;;;;5.28;1.67;;;;;;;;;;5018032;28;20326;-71
2023/07/26 03:24:37;;;;;;;8.18;1.88;;;;;;;;;;5045003;28;20044;-72
2023/07/26 03:27:03;;;;;;;8.35;1.90;;;;;;;;;;5019322;28;20386;-72
2023/07/26 03:29:29;;;;;;;7.70;1.92;;;;;;;;;;5032649;28;20286;-73
2023/07/26 03:31:57;;;;;;;4.47;1.80;;;;;;;;;;5024293;28;20131;-74
2023/07/26 03:34:22;;;;;;;6.22;2.20;;;;;;;;;;5017142;28;20080;-73
2023/07/26 03:36:50;;;;;;;6.90;2.15;;;;;;;;;;5018637;28;20026;-74
2023/07/26 03:39:18;;;;;;;8.88;2.00;;;;;;;;;;5018026;28;20747;-71
2023/07/26 03:41:43;;;;;;;4.60;2.22;;;;;;;;;;5017792;28;20084;-70
2023/07/26 03:44:08;;;;;;;4.70;1.80;;;;;;;;;;5008326;28;20029;-71
2023/07/26 03:46:34;;;;;;;6.05;2.05;;;;;;;;;;5014822;28;20033;-72
2023/07/26 03:48:59;;;;;;;5.88;1.90;;;;;;;;;;5016697;28;20402;-73
2023/07/26 03:51:24;;;;;;;6.50;2.47;;;;;;;;;;5013851;28;20055;-72
2023/07/26 03:53:50;;;;;;;5.20;2.10;;;;;;;;;;5019292;28;20158;-71
2023/07/26 03:56:16;;;;;;;4.78;2.25;;;;;;;;;;5013701;28;20319;-72
2023/07/26 03:58:41;;;;;;;6.57;2.40;;;;;;;;;;5017231;28;20637;-73
2023/07/26 04:01:07;;;;;;;7.78;2.35;;;;;;;;;;5017020;28;20037;-71
2023/07/26 04:03:33;;;;;;;7.18;2.10;;;;;;;;;;5015484;28;21614;-73
2023/07/26 04:05:58;;;;;;;3.88;1.92;;;;;;;;;;5015715;28;20071;-72
2023/07/26 04:08:23;;;;;;;5.07;1.92;;;;;;;;;;5015687;28;20059;-73
2023/07/26 04:10:49;;;;;;;5.47;1.80;;;;;;;;;;5050099;28;20116;-72
2023/07/26 04:13:14;;;;;;;5.18;1.80;;;;;;;;;;5018154;28;20102;-72
2023/07/26 04:15:39;;;;;;;6.03;1.83;;;;;;;;;;5015250;28;20121;-72
2023/07/26 04:18:05;;;;;;;3.88;1.58;;;;;;;;;;5017810;28;20033;-73
2023/07/26 04:20:30;;;;;;;6.75;1.90;;;;;;;;;;5032634;28;20033;-72
2023/07/26 04:22:55;;;;;;;7.38;1.98;;;;;;;;;;5015651;28;20486;-73
2023/07/26 04:25:21;;;;;;;4.50;1.50;;;;;;;;;;5013768;28;26732;-73
2023/07/26 04:27:49;;;;;;;8.52;1.92;;;;;;;;;;5017696;28;20102;-73
2023/07/26 04:30:14;;;;;;;8.52;1.83;;;;;;;;;;5017630;28;20121;-73
2023/07/26 04:32:39;;;;;;;14.05;2.60;;;;;;;;;;5017828;28;22540;-73
2023/07/26 04:35:08;;;;;;;26.35;4.88;;;;;;;;;;5015489;28;20048;-72
2023/07/26 04:37:33;;;;;;;19.08;4.53;;;;;;;;;;5017167;28;20375;-71
2023/07/26 04:39:58;;;;;;;28.63;5.50;;;;;;;;;;5017221;28;20033;-72
2023/07/26 04:42:24;;;;;;;33.35;6.30;;;;;;;;;;5049230;28;20040;-70
2023/07/26 04:44:49;;;;;;;30.50;5.95;;;;;;;;;;5017808;28;20039;-70
2023/07/26 04:47:15;;;;;;;31.88;6.85;;;;;;;;;;5049698;28;20347;-71
2023/07/26 04:49:41;;;;;;;23.10;4.93;;;;;;;;;;5030758;28;20036;-73
2023/07/26 04:52:06;;;;;;;16.83;4.03;;;;;;;;;;5020763;28;20303;-73
2023/07/26 04:54:32;;;;;;;19.17;4.30;;;;;;;;;;5014569;28;20029;-74
2023/07/26 04:56:59;;;;;;;15.20;3.53;;;;;;;;;;5051512;28;20037;-75
2023/07/26 04:59:24;;;;;;;13.18;3.63;;;;;;;;;;5016537;28;20033;-74
2023/07/26 05:01:50;;;;;;;14.30;3.42;;;;;;;;;;5015302;28;20025;-74
2023/07/26 05:04:17;;;;;;;12.63;3.80;;;;;;;;;;5016104;28;20116;-74
2023/07/26 05:06:43;;;;;;;11.18;3.78;;;;;;;;;;5013166;28;20399;-74
2023/07/26 05:09:08;;;;;;;18.08;4.40;;;;;;;;;;5049182;28;20135;-74
2023/07/26 05:11:33;;;;;;;14.05;4.15;;;;;;;;;;5017491;28;21878;-74
2023/07/26 05:13:59;;;;;;;15.15;3.92;;;;;;;;;;5017983;28;20107;-74
2023/07/26 05:16:24;;;;;;;9.52;3.67;;;;;;;;;;5015430;28;20283;-73
2023/07/26 05:18:49;;;;;;;16.45;4.07;;;;;;;;;;5014978;28;20041;-73
2023/07/26 05:21:15;;;;;;;22.67;4.68;;;;;;;;;;5012268;28;20045;-73
2023/07/26 05:23:43;;;;;;;29.80;5.15;;;;;;;;;;5012052;28;20278;-73
2023/07/26 05:26:08;;;;;;;28.75;5.35;;;;;;;;;;5012553;28;20186;-73
2023/07/26 05:28:34;;;;;;;26.10;4.97;;;;;;;;;;4989494;28;20183;-72
2023/07/26 05:30:59;;;;;;;22.38;4.40;;;;;;;;;;5008598;28;20179;-74
2023/07/26 05:33:25;;;;;;;20.55;5.13;;;;;;;;;;5013683;28;20060;-73
2023/07/26 05:35:51;;;;;;;17.55;4.00;;;;;;;;;;5043427;28;20120;-73
2023/07/26 05:38:16;;;;;;;10.15;3.47;;;;;;;;;;5004407;28;20542;-73
2023/07/26 05:40:41;;;;;;;14.20;3.55;;;;;;;;;;4994069;28;20041;-73
2023/07/26 05:43:07;;;;;;;13.55;3.55;;;;;;;;;;4999908;28;20041;-74
2023/07/26 05:45:32;;;;;;;18.50;3.50;;;;;;;;;;4993078;28;20429;-72
2023/07/26 05:47:57;;;;;;;17.58;3.85;;;;;;;;;;4995884;28;20036;-74
2023/07/26 05:50:23;;;;;;;21.20;3.83;;;;;;;;;;4996972;28;20048;-75
2023/07/26 05:52:48;;;;;;;18.05;3.05;;;;;;;;;;5012373;28;21808;-73
2023/07/26 05:55:15;;;;;;;21.45;3.60;;;;;;;;;;5007553;28;20033;-72
2023/07/26 05:57:40;;;;;;;15.73;3.50;;;;;;;;;;5012094;28;20041;-72
2023/07/26 06:00:07;;;;;;;14.48;3.88;;;;;;;;;;5011739;28;20068;-72
2023/07/26 06:02:35;;;;;;;12.45;3.05;;;;;;;;;;4992595;28;20462;-72
2023/07/26 06:05:00;;;;;;;10.90;3.20;;;;;;;;;;5024962;28;20556;-71
2023/07/26 06:07:26;;;;;;;8.52;3.58;;;;;;;;;;4995554;28;20611;-70
2023/07/26 06:09:51;;;;;;;14.32;3.63;;;;;;;;;;4995737;28;20102;-70
2023/07/26 06:12:16;;;;;;;17.45;3.65;;;;;;;;;;5010444;28;20382;-71
2023/07/26 06:14:42;;;;;;;13.90;3.53;;;;;;;;;;5013224;28;20501;-72
2023/07/26 06:17:07;;;;;;;14.88;3.33;;;;;;;;;;5027432;28;20148;-71
2023/07/26 06:19:32;;;;;;;15.35;3.50;;;;;;;;;;5000240;28;20045;-72
2023/07/26 06:21:58;;;;;;;12.88;3.38;;;;;;;;;;5011258;28;20144;-72
2023/07/26 06:24:25;;;;;;;10.50;3.17;;;;;;;;;;5031734;28;20464;-72
2023/07/26 06:26:54;;;;;;;7.63;2.83;;;;;;;;;;5011680;28;20033;-71
2023/07/26 06:29:20;;;;;;;12.77;2.80;;;;;;;;;;5019207;28;20037;-71
2023/07/26 06:31:45;;;;;;;10.27;2.53;;;;;;;;;;5007762;28;21236;-71
2023/07/26 06:34:10;;;;;;;11.05;2.88;;;;;;;;;;5016807;28;20053;-73
2023/07/26 06:36:36;;;;;;;10.60;2.78;;;;;;;;;;5016473;28;20124;-73
2023/07/26 06:39:01;;;;;;;10.40;2.50;;;;;;;;;;5046293;28;21950;-72
2023/07/26 06:41:29;;;;;;;9.40;2.33;;;;;;;;;;5015221;28;20417;-71
2023/07/26 06:43:54;;;;;;;13.35;2.53;;;;;;;;;;5028028;28;21184;-72
2023/07/26 06:46:19;;;;;;;6.53;2.20;;;;;;;;;;5048788;28;20489;-72
2023/07/26 06:48:47;;;;;;;10.85;2.65;;;;;;;;;;5022118;28;20573;-71
2023/07/26 06:51:12;;;;;;;8.55;2.40;;;;;;;;;;5020562;28;20039;-72
2023/07/26 06:53:38;;;;;;;11.95;2.22;;;;;;;;;;5020790;28;20880;-71
2023/07/26 06:56:03;;;;;;;5.97;2.72;;;;;;;;;;5050947;28;20128;-74
2023/07/26 06:58:28;;;;;;;8.57;2.53;;;;;;;;;;5020812;28;20113;-73
2023/07/26 07:00:54;;;;;;;11.52;2.63;;;;;;;;;;5023284;28;20076;-72
2023/07/26 07:03:20;;;;;;;7.55;2.55;;;;;;;;;;5021225;28;20350;-73
2023/07/26 07:05:47;;;;;;;9.60;2.53;;;;;;;;;;5021920;28;20040;-71
2023/07/26 07:08:13;;;;;;;9.48;2.50;;;;;;;;;;5018978;28;20747;-73
2023/07/26 07:10:38;;;;;;;9.73;2.90;;;;;;;;;;5019517;28;20037;-72
2023/07/26 07:13:03;;;;;;;10.68;3.10;;;;;;;;;;5021594;28;20056;-72
2023/07/26 07:15:29;;;;;;;8.35;2.65;;;;;;;;;;5020280;28;20695;-71
2023/07/26 07:17:55;;;;;;;10.60;2.95;;;;;;;;;;5016906;28;20109;-72
2023/07/26 07:20:20;;;;;;;7.22;2.80;;;;;;;;;;5021454;28;20120;-72
2023/07/26 07:22:45;;;;;;;6.00;2.75;;;;;;;;;;5017834;28;20717;-71
2023/07/26 07:25:11;;;;;;;13.05;2.95;;;;;;;;;;5018037;28;20038;-71
2023/07/26 07:27:36;;;;;;;9.32;2.40;;;;;;;;;;5019999;28;20505;-74
2023/07/26 07:30:05;;;;;;;7.18;2.40;;;;;;;;;;5019109;28;20546;-73
2023/07/26 07:32:31;;;;;;;9.30;2.85;;;;;;;;;;5018876;28;20049;-74
2023/07/26 07:34:56;;;;;;;8.40;2.55;;;;;;;;;;5036562;28;20041;-74
2023/07/26 07:37:26;;;;;;;12.45;3.00;;;;;;;;;;5020301;28;20037;-73
2023/07/26 07:39:51;;;;;;;10.73;2.53;;;;;;;;;;5022368;28;20053;-73
2023/07/26 07:42:16;;;;;;;8.55;2.65;;;;;;;;;;5022247;28;20124;-73
2023/07/26 07:44:44;;;;;;;6.38;2.83;;;;;;;;;;5019310;28;20757;-73
2023/07/26 07:47:09;;;;;;;6.18;2.47;;;;;;;;;;5021203;28;20033;-73
2023/07/26 07:49:34;;;;;;;6.55;2.65;;;;;;;;;;5013677;28;20662;-76
2023/07/26 07:52:02;;;;;;;7.75;2.67;;;;;;;;;;4994980;28;20528;-74
2023/07/26 07:54:30;;;;;;;5.85;2.30;;;;;;;;;;4997289;28;20065;-75
2023/07/26 07:56:55;;;;;;;13.10;2.58;;;;;;;;;;4999508;28;20037;-73
2023/07/26 07:59:20;;;;;;;7.47;2.70;;;;;;;;;;5030237;28;20041;-76
2023/07/26 08:01:46;;;;;;;8.57;2.60;;;;;;;;;;5003089;28;20111;-74
2023/07/26 08:04:11;;;;;;;7.15;2.22;;;;;;;;;;5000397;28;20045;-76
2023/07/26 08:06:36;;;;;;;6.53;2.55;;;;;;;;;;4999232;28;20068;-77
2023/07/26 08:09:01;;;;;;;9.20;2.80;;;;;;;;;;5017011;28;22292;-75
2023/07/26 08:11:29;;;;;;;8.45;2.75;;;;;;;;;;5035390;28;20036;-75
2023/07/26 08:13:54;;;;;;;8.18;2.67;;;;;;;;;;5019161;28;20045;-73
2023/07/26 08:16:19;;;;;;;12.00;2.95;;;;;;;;;;5020101;28;20036;-74
2023/07/26 08:18:45;;;;;;;9.77;3.03;;;;;;;;;;5021024;28;20191;-74
2023/07/26 08:21:11;;;;;;;11.27;2.50;;;;;;;;;;5020118;28;20048;-74
2023/07/26 08:23:39;;;;;;;7.38;2.72;;;;;;;;;;4985735;28;20046;-73
2023/07/26 08:26:05;;;;;;;10.57;2.78;;;;;;;;;;5010282;28;20039;-71
2023/07/26 08:28:31;;;;;;;6.63;2.50;;;;;;;;;;5014979;28;20049;-71
2023/07/26 08:30:57;;;;;;;5.78;2.40;;;;;;;;;;4997035;28;20034;-71
2023/07/26 08:33:22;;;;;;;8.32;2.25;;;;;;;;;;4996531;28;20096;-74
2023/07/26 08:35:47;;;;;;;6.13;2.47;;;;;;;;;;4997040;28;20190;-73
2023/07/26 08:38:15;;;;;;;6.38;2.53;;;;;;;;;;4998269;28;20045;-74
2023/07/26 08:40:50;;;;;;;7.63;2.80;;;;;;;;;;4999205;28;20042;-72
2023/07/26 08:43:22;;;;;;;12.23;2.88;;;;;;;;;;5016722;28;20116;-71
2023/07/26 08:45:49;;;;;;;6.07;2.83;;;;;;;;;;5019090;28;20434;-72
2023/07/26 08:48:17;;;;;;;7.07;2.83;;;;;;;;;;5017174;28;20042;-73
2023/07/26 08:50:42;;;;;;;6.97;2.70;;;;;;;;;;5018535;28;20041;-73
2023/07/26 08:53:08;;;;;;;6.95;2.70;;;;;;;;;;5022002;28;20049;-73
2023/07/26 08:55:33;;;;;;;8.30;2.72;;;;;;;;;;4999598;28;20033;-73
2023/07/26 08:57:59;;;;;;;6.43;2.75;;;;;;;;;;5015585;28;20041;-71
2023/07/26 09:00:28;;;;;;;9.02;2.78;;;;;;;;;;5016687;28;20063;-73
2023/07/26 09:03:04;;;;;;;8.45;2.38;;;;;;;;;;5038271;28;20072;-72
2023/07/26 09:05:32;;;;;;;9.20;2.80;;;;;;;;;;5013571;28;20429;-73
2023/07/26 09:08:00;;;;;;;6.18;2.63;;;;;;;;;;5013700;28;20278;-74
2023/07/26 09:10:26;;;;;;;8.85;2.80;;;;;;;;;;5049674;28;20029;-74
2023/07/26 09:12:51;;;;;;;8.30;2.58;;;;;;;;;;5018710;28;20528;-74
2023/07/26 09:15:18;;;;;;;7.10;2.70;;;;;;;;;;5017760;28;20029;-73
2023/07/26 09:17:43;;;;;;;6.95;2.28;;;;;;;;;;5017258;28;20097;-71
2023/07/26 09:20:22;;;;;;;6.72;2.50;;;;;;;;;;5012007;28;20060;-74
2023/07/26 09:22:52;;;;;;;10.15;2.50;;;;;;;;;;5049219;28;20406;-72
2023/07/26 09:25:30;;;;;;;7.05;2.35;;;;;;;;;;5017587;28;20108;-72
2023/07/26 09:27:58;;;;;;;4.03;2.08;;;;;;;;;;5012548;28;20033;-73
2023/07/26 09:30:25;;;;;;;4.80;2.60;;;;;;;;;;5016992;28;22280;-74
2023/07/26 09:32:53;;;;;;;4.57;2.70;;;;;;;;;;5013516;28;20047;-75
2023/07/26 09:35:18;;;;;;;5.43;2.78;;;;;;;;;;4993317;28;20671;-74
2023/07/26 09:37:44;;;;;;;8.20;3.03;;;;;;;;;;5014985;28;20037;-75
2023/07/26 09:40:09;;;;;;;8.45;3.10;;;;;;;;;;5013398;28;20041;-75
2023/07/26 09:42:43;;;;;;;11.02;3.08;;;;;;;;;;5008058;28;20025;-75
2023/07/26 09:45:12;;;;;;;7.68;3.13;;;;;;;;;;5008723;28;20285;-74
2023/07/26 09:47:38;;;;;;;8.60;3.10;;;;;;;;;;5044150;28;20033;-73
2023/07/26 09:50:03;;;;;;;11.18;3.25;;;;;;;;;;4997299;28;20324;-75
2023/07/26 09:52:29;;;;;;;10.73;3.38;;;;;;;;;;5015735;28;20041;-76
2023/07/26 09:54:55;;;;;;;7.60;3.25;;;;;;;;;;5012603;28;20590;-73
2023/07/26 09:57:21;;;;;;;7.30;3.20;;;;;;;;;;5011384;28;20041;-71
2023/07/26 09:59:51;;;;;;;10.93;3.17;;;;;;;;;;5012257;28;20545;-72
2023/07/26 10:02:17;;;;;;;11.95;3.10;;;;;;;;;;5014254;28;20033;-73
2023/07/26 10:04:47;;;;;;;11.48;3.53;;;;;;;;;;5048127;28;20029;-74
2023/07/26 10:07:13;;;;;;;9.90;3.40;;;;;;;;;;5049173;28;20595;-74
2023/07/26 10:09:43;;;;;;;12.75;3.67;;;;;;;;;;5015384;28;20068;-74
2023/07/26 10:12:08;;;;;;;10.50;3.35;;;;;;;;;;5018218;28;20036;-72
2023/07/26 10:14:36;;;;;;;9.98;3.35;;;;;;;;;;5030047;28;20128;-74
2023/07/26 10:17:06;;;;;;;5.80;2.83;;;;;;;;;;5013417;28;20494;-73
2023/07/26 10:19:31;;;;;;;10.55;3.60;;;;;;;;;;5017110;28;20033;-76
2023/07/26 10:21:57;;;;;;;9.88;3.60;;;;;;;;;;5020083;28;20036;-79
2023/07/26 10:24:23;;;;;;;7.97;3.25;;;;;;;;;;5013336;28;20059;-79
2023/07/26 10:26:49;;;;;;;10.73;3.70;;;;;;;;;;5027286;28;20042;-77
2023/07/26 10:29:18;;;;;;;8.10;3.47;;;;;;;;;;5043553;28;20099;-76
2023/07/26 10:31:44;;;;;;;8.68;3.17;;;;;;;;;;5009898;28;20033;-77
2023/07/26 10:34:17;;;;;;;10.23;3.72;;;;;;;;;;5017007;28;20048;-80
2023/07/26 10:36:43;;;;;;;9.15;3.65;;;;;;;;;;5013366;28;20078;-76
2023/07/26 10:39:09;;;;;;;8.23;3.67;;;;;;;;;;5014678;28;20037;-77
2023/07/26 10:41:35;;;;;;;9.20;3.75;;;;;;;;;;5045574;28;20070;-78
2023/07/26 10:44:04;;;;;;;11.27;3.92;;;;;;;;;;5029007;28;20036;-79
2023/07/26 10:46:37;;;;;;;11.27;3.72;;;;;;;;;;4991178;28;20030;-73
2023/07/26 10:49:24;;;;;;;8.50;3.60;;;;;;;;;;5009418;28;20038;-77
2023/07/26 10:51:56;;;;;;;10.57;3.92;;;;;;;;;;5005919;28;20030;-79
2023/07/26 10:54:38;;;;;;;14.20;4.32;;;;;;;;;;5020008;28;20131;-78
2023/07/26 10:57:13;;;;;;;10.18;4.45;;;;;;;;;;5015385;28;20041;-80
2023/07/26 10:59:54;;;;;;;10.93;4.68;;;;;;;;;;5025200;28;20033;-78
2023/07/26 11:02:48;;;;;;;9.05;3.83;;;;;;;;;;5007681;28;20449;-78
2023/07/26 11:05:18;;;;;;;12.18;4.22;;;;;;;;;;5007396;28;20041;-78
2023/07/26 11:08:01;;;;;;;10.30;4.22;;;;;;;;;;4999920;28;20042;-76
2023/07/26 11:10:29;;;;;;;8.90;4.18;;;;;;;;;;4998446;28;20041;-79
2023/07/26 11:13:12;;;;;;;10.27;4.25;;;;;;;;;;4994763;28;20052;-78
2023/07/26 11:15:38;;;;;;;11.32;4.28;;;;;;;;;;4993783;28;20782;-78
2023/07/26 11:18:04;;;;;;;11.68;3.78;;;;;;;;;;5005124;28;20040;-77
2023/07/26 11:20:31;;;;;;;13.02;4.30;;;;;;;;;;5003617;28;20037;-77
2023/07/26 11:22:57;;;;;;;9.85;3.50;;;;;;;;;;5046765;28;20047;-74
2023/07/26 11:25:25;;;;;;;10.77;3.55;;;;;;;;;;5028111;28;20033;-78
2023/07/26 11:27:51;;;;;;;10.00;4.00;;;;;;;;;;5049311;28;20122;-76
2023/07/26 11:30:17;;;;;;;10.00;4.00;;;;;;;;;;5018001;28;20741;-76
2023/07/26 11:32:43;;;;;;;10.32;3.97;;;;;;;;;;4999914;28;20069;-78
2023/07/26 11:35:09;;;;;;;11.13;4.00;;;;;;;;;;5021740;28;20044;-77
2023/07/26 11:37:39;;;;;;;13.75;4.00;;;;;;;;;;5015105;28;20037;-77
2023/07/26 11:40:06;;;;;;;10.35;4.25;;;;;;;;;;5019891;28;20056;-76
2023/07/26 11:42:33;;;;;;;11.73;3.70;;;;;;;;;;5022380;28;20542;-74
2023/07/26 11:45:01;;;;;;;9.13;4.03;;;;;;;;;;5035873;28;20037;-78
2023/07/26 11:47:28;;;;;;;12.07;4.15;;;;;;;;;;5013196;28;20045;-75
2023/07/26 11:49:53;;;;;;;11.93;4.07;;;;;;;;;;5007787;28;21042;-78
2023/07/26 11:52:22;;;;;;;11.00;4.65;;;;;;;;;;5015867;28;20037;-77
2023/07/26 11:54:58;;;;;;;10.57;3.90;;;;;;;;;;5014070;28;20057;-74
2023/07/26 11:57:26;;;;;;;11.77;3.88;;;;;;;;;;5013394;28;20527;-76
2023/07/26 11:59:55;;;;;;;10.73;3.75;;;;;;;;;;5029831;28;20382;-71
2023/07/26 12:02:21;;;;;;;8.10;3.97;;;;;;;;;;5012332;28;20075;-76
2023/07/26 12:05:05;;;;;;;10.07;3.90;;;;;;;;;;5018324;28;20033;-75
2023/07/26 12:07:31;;;;;;;9.07;3.85;;;;;;;;;;5023764;28;20032;-78
2023/07/26 12:09:59;;;;;;;7.00;3.65;;;;;;;;;;5018886;28;20537;-75
2023/07/26 12:12:24;;;;;;;11.15;4.50;;;;;;;;;;5015961;28;20060;-76
2023/07/26 12:14:49;;;;;;;11.65;4.10;;;;;;;;;;5015458;28;20737;-77
2023/07/26 12:17:15;;;;;;;9.68;4.10;;;;;;;;;;5022277;28;20037;-75
2023/07/26 12:19:44;;;;;;;8.85;3.63;;;;;;;;;;5015683;28;20482;-75
2023/07/26 12:22:09;;;;;;;9.30;3.72;;;;;;;;;;5015138;28;20079;-72
2023/07/26 12:24:53;;;;;;;10.48;3.90;;;;;;;;;;5020446;28;20029;-67
2023/07/26 12:27:21;;;;;;;7.93;3.22;;;;;;;;;;5047783;28;22222;-71
2023/07/26 12:29:47;;;;;;;8.18;3.50;;;;;;;;;;5021015;28;20201;-74
2023/07/26 12:32:16;;;;;;;8.68;3.50;;;;;;;;;;5020699;28;20029;-74
2023/07/26 12:34:42;;;;;;;6.63;3.20;;;;;;;;;;5012405;28;20041;-70
2023/07/26 12:37:08;;;;;;;9.55;3.00;;;;;;;;;;5016472;28;20033;-77
2023/07/26 12:39:34;;;;;;;9.43;3.40;;;;;;;;;;5012051;28;20036;-75
2023/07/26 12:41:59;;;;;;;9.80;3.72;;;;;;;;;;5018389;28;20040;-75
2023/07/26 12:44:26;;;;;;;7.60;3.72;;;;;;;;;;5017737;28;20098;-74
2023/07/26 12:46:52;;;;;;;12.70;3.92;;;;;;;;;;5015243;28;20156;-74
2023/07/26 12:49:18;;;;;;;8.25;3.90;;;;;;;;;;5025936;28;20053;-77
2023/07/26 12:51:43;;;;;;;5.18;2.88;;;;;;;;;;4997590;28;20084;-75
2023/07/26 12:54:08;;;;;;;9.07;3.25;;;;;;;;;;4997882;28;21131;-73
2023/07/26 12:56:36;;;;;;;10.00;3.47;;;;;;;;;;5026603;28;20149;-74
2023/07/26 12:59:01;;;;;;;11.05;3.83;;;;;;;;;;5012722;28;20045;-76
2023/07/26 13:01:27;;;;;;;7.38;3.40;;;;;;;;;;4999591;28;20038;-76
2023/07/26 13:03:52;;;;;;;8.20;3.60;;;;;;;;;;4996981;28;20565;-75
2023/07/26 13:06:17;;;;;;;10.55;3.88;;;;;;;;;;4998686;28;20091;-76
2023/07/26 13:08:44;;;;;;;11.32;3.65;;;;;;;;;;4997125;28;20116;-77
2023/07/26 13:11:09;;;;;;;6.95;3.10;;;;;;;;;;4994849;28;22570;-76
2023/07/26 13:13:35;;;;;;;6.50;3.22;;;;;;;;;;4992322;28;20045;-76
2023/07/26 13:16:02;;;;;;;6.88;3.15;;;;;;;;;;4996556;28;20041;-77
2023/07/26 13:18:30;;;;;;;9.80;3.70;;;;;;;;;;5011138;28;20140;-79
2023/07/26 13:20:55;;;;;;;9.30;3.50;;;;;;;;;;5006708;28;20033;-78
2023/07/26 13:23:21;;;;;;;7.88;3.40;;;;;;;;;;5025147;28;20036;-78
2023/07/26 13:25:46;;;;;;;10.43;3.63;;;;;;;;;;4998049;28;20910;-77
2023/07/26 13:28:12;;;;;;;9.27;3.30;;;;;;;;;;4986603;28;20052;-79
2023/07/26 13:30:37;;;;;;;13.48;4.22;;;;;;;;;;5012134;28;20037;-76
2023/07/26 13:33:03;;;;;;;9.07;3.47;;;;;;;;;;5009425;28;20045;-77
2023/07/26 13:35:28;;;;;;;9.88;4.15;;;;;;;;;;5013547;28;20037;-77
2023/07/26 13:37:53;;;;;;;8.70;3.47;;;;;;;;;;5024255;28;20136;-78
2023/07/26 13:40:20;;;;;;;10.38;3.40;;;;;;;;;;5014734;28;20086;-74
2023/07/26 13:42:45;;;;;;;9.55;3.50;;;;;;;;;;5012846;28;20033;-79
2023/07/26 13:45:11;;;;;;;8.32;3.60;;;;;;;;;;5013878;28;20059;-77
2023/07/26 13:47:36;;;;;;;15.07;3.65;;;;;;;;;;5011652;28;20148;-76
2023/07/26 13:50:02;;;;;;;9.02;3.47;;;;;;;;;;5029370;28;20383;-76
2023/07/26 13:52:27;;;;;;;9.27;3.20;;;;;;;;;;4996891;28;20494;-76
2023/07/26 13:54:55;;;;;;;7.53;3.03;;;;;;;;;;5005036;28;20047;-78
2023/07/26 13:57:21;;;;;;;6.88;3.25;;;;;;;;;;5011941;28;20033;-77
2023/07/26 13:59:46;;;;;;;11.85;3.50;;;;;;;;;;5011618;28;20374;-77
2023/07/26 14:02:11;;;;;;;9.15;3.40;;;;;;;;;;5012815;28;20294;-77
2023/07/26 14:04:37;;;;;;;7.75;3.38;;;;;;;;;;5006656;28;20428;-75
2023/07/26 14:07:02;;;;;;;9.85;4.00;;;;;;;;;;4998847;28;20555;-78
2023/07/26 14:09:27;;;;;;;10.90;3.40;;;;;;;;;;5013581;28;21013;-77
2023/07/26 14:11:53;;;;;;;12.57;3.65;;;;;;;;;;4997116;28;20034;-76
2023/07/26 14:14:18;;;;;;;9.00;3.40;;;;;;;;;;5007352;28;20045;-79
2023/07/26 14:16:43;;;;;;;11.27;3.35;;;;;;;;;;4989005;28;21060;-77
2023/07/26 14:19:09;;;;;;;9.98;3.45;;;;;;;;;;4991052;28;20045;-77
2023/07/26 14:21:35;;;;;;;7.65;3.20;;;;;;;;;;4991975;28;20038;-75
2023/07/26 14:24:00;;;;;;;11.43;3.75;;;;;;;;;;4993187;28;20694;-77
2023/07/26 14:26:28;;;;;;;10.02;3.28;;;;;;;;;;5003956;28;20042;-74
2023/07/26 14:28:56;;;;;;;6.68;3.53;;;;;;;;;;5003615;28;20093;-76
2023/07/26 14:31:21;;;;;;;9.98;3.42;;;;;;;;;;5012848;28;20963;-75
2023/07/26 14:33:47;;;;;;;9.52;3.50;;;;;;;;;;5014993;28;20044;-76